createdAt,value
2019-04-21T00:04:12.442Z,18.34
2019-04-21T00:09:35.834Z,16.53
2019-04-21T00:14:32.845Z,17.79
2019-04-21T00:19:29.858Z,16.79
2019-04-21T00:24:46.132Z,19.47
2019-04-21T00:34:59.063Z,19.07
2019-04-21T00:40:16.381Z,21.37
2019-04-21T00:45:23.621Z,20.02
2019-04-21T00:50:40.201Z,19.82
2019-04-21T00:55:47.305Z,22.01
2019-04-21T01:00:51.309Z,22.87
2019-04-21T01:06:03.292Z,22.61
2019-04-21T01:11:15.248Z,23.86
2019-04-21T01:21:14.077Z,26.66
2019-04-21T01:26:31.081Z,25.45
2019-04-21T01:31:42.285Z,25.66
2019-04-21T01:36:52.918Z,25.40
2019-04-21T01:42:03.757Z,26.78
2019-04-21T01:47:10.157Z,28.47
2019-04-21T01:52:20.801Z,29.74
2019-04-21T01:57:17.721Z,26.85
2019-04-21T02:02:23.999Z,28.68
2019-04-21T02:07:39.249Z,29.41
2019-04-21T02:12:40.723Z,31.44
2019-04-21T02:17:49.834Z,29.20
2019-04-21T02:33:27.964Z,33.85
2019-04-21T02:38:30.134Z,30.23
2019-04-21T02:43:37.706Z,31.72
2019-04-21T02:58:51.880Z,33.42
2019-04-21T03:04:22.207Z,34.59
2019-04-21T03:09:24.439Z,34.44
2019-04-21T03:14:31.156Z,35.79
2019-04-21T03:19:48.228Z,35.80
2019-04-21T03:25:04.497Z,37.94
2019-04-21T04:06:03.126Z,42.84
2019-04-21T04:11:12.363Z,39.57
2019-04-21T04:16:12.009Z,42.88
2019-04-21T04:21:16.177Z,40.58
2019-04-21T04:31:37.570Z,41.48
2019-04-21T04:37:02.072Z,44.42
2019-04-21T04:52:10.246Z,48.82
2019-04-21T04:57:29.640Z,45.42
2019-04-21T05:07:59.319Z,44.67
2019-04-21T05:12:29.263Z,51.86
2019-04-21T05:17:52.559Z,52.17
2019-04-21T05:22:54.471Z,52.15
2019-04-21T05:27:55.338Z,51.50
2019-04-21T05:33:09.681Z,51.74
2019-04-21T05:38:15.684Z,50.32
2019-04-21T05:43:29.573Z,53.58
2019-04-21T05:48:35.134Z,53.99
2019-04-21T05:53:42.254Z,54.32
2019-04-21T05:58:49.746Z,54.74
2019-04-21T06:04:07.253Z,51.48
2019-04-21T06:09:11.439Z,52.37
2019-04-21T06:19:30.970Z,49.97
2019-04-21T06:24:52.254Z,50.14
2019-04-21T06:29:46.533Z,51.06
2019-04-21T06:35:07.311Z,50.09
2019-04-21T06:45:12.829Z,49.74
2019-04-21T06:50:14.578Z,48.09
2019-04-21T06:55:26.435Z,50.33
2019-04-21T07:05:41.165Z,49.64
2019-04-21T07:10:53.334Z,49.05
2019-04-21T07:16:04.525Z,49.91
2019-04-21T07:21:06.430Z,48.47
2019-04-21T07:26:19.390Z,49.66
2019-04-21T07:31:29.074Z,46.53
2019-04-21T07:41:39.838Z,43.34
2019-04-21T07:46:41.588Z,43.51
2019-04-21T07:56:52.437Z,43.36
2019-04-21T08:02:10.742Z,44.36
2019-04-21T08:07:29.364Z,44.97
2019-04-21T08:12:24.179Z,46.59
2019-04-21T08:17:36.509Z,44.95
2019-04-21T08:22:57.610Z,48.25
2019-04-21T08:27:59.792Z,50.26
2019-04-21T08:33:17.510Z,50.83
2019-04-21T08:38:13.553Z,52.43
2019-04-21T08:43:27.531Z,53.64
2019-04-21T08:48:28.525Z,53.18
2019-04-21T08:53:41.029Z,53.01
2019-04-21T09:03:57.029Z,52.42
2019-04-21T09:09:04.957Z,51.31
2019-04-21T09:14:11.906Z,50.80
2019-04-21T09:19:20.186Z,49.40
2019-04-21T09:24:31.319Z,49.40
2019-04-21T09:29:28.369Z,48.84
2019-04-21T09:34:32.620Z,47.34
2019-04-21T09:39:39.711Z,46.77
2019-04-21T09:44:44.423Z,46.45
2019-04-21T09:49:51.935Z,45.59
2019-04-21T09:55:07.027Z,45.12
2019-04-21T10:00:15.108Z,45.39
2019-04-21T10:05:17.424Z,46.64
2019-04-21T10:10:27.416Z,46.71
2019-04-21T10:15:35.511Z,46.89
2019-04-21T10:20:43.230Z,45.75
2019-04-21T10:25:52.569Z,46.29
2019-04-21T10:31:00.853Z,46.40
2019-04-21T10:36:10.952Z,45.28
2019-04-21T10:41:19.027Z,44.37
2019-04-21T10:46:26.690Z,43.82
2019-04-21T10:51:35.417Z,43.81
2019-04-21T10:56:45.796Z,42.08
2019-04-21T11:01:52.846Z,41.35
2019-04-21T11:07:06.795Z,39.23
2019-04-21T11:12:10.242Z,37.66
2019-04-21T11:17:19.557Z,35.94
2019-04-21T11:22:28.517Z,34.18
2019-04-21T11:27:37.307Z,33.43
2019-04-21T11:32:46.354Z,32.37
2019-04-21T11:37:59.432Z,33.30
2019-04-21T11:43:01.955Z,32.59
2019-04-21T11:48:10.476Z,31.69
2019-04-21T11:53:18.925Z,31.50
2019-04-21T11:58:27.816Z,29.88
2019-04-21T12:03:35.755Z,29.30
2019-04-21T12:08:47.618Z,28.71
2019-04-21T12:13:52.310Z,27.18
2019-04-21T12:19:01.212Z,27.16
2019-04-21T12:24:11.142Z,26.66
2019-04-21T12:29:18.924Z,25.37
2019-04-21T12:34:28.049Z,25.05
2019-04-21T12:39:36.914Z,24.77
2019-04-21T12:44:45.431Z,24.66
2019-04-21T12:49:54.055Z,23.07
2019-04-21T12:55:01.692Z,22.66
2019-04-21T13:00:11.054Z,23.09
2019-04-21T13:05:19.856Z,22.50
2019-04-21T13:10:26.842Z,22.36
2019-04-21T13:15:35.809Z,21.91
2019-04-21T13:20:44.737Z,20.86
2019-04-21T13:25:54.129Z,19.65
2019-04-21T13:31:02.297Z,19.36
2019-04-21T13:36:11.793Z,18.97
2019-04-21T13:41:32.686Z,18.00
2019-04-21T13:46:28.906Z,17.40
2019-04-21T13:51:36.550Z,16.60
2019-04-21T13:56:46.844Z,15.51
2019-04-21T14:01:54.151Z,15.34
2019-04-21T14:07:02.907Z,15.00
2019-04-21T14:12:11.913Z,15.13
2019-04-21T14:17:21.114Z,14.15
2019-04-21T14:22:29.331Z,13.24
2019-04-21T14:27:38.553Z,12.96
2019-04-21T14:32:47.602Z,12.45
2019-04-21T14:37:56.461Z,11.78
2019-04-21T14:43:03.594Z,11.76
2019-04-21T14:48:12.539Z,11.20
2019-04-21T14:53:21.502Z,11.43
2019-04-21T14:58:30.885Z,11.14
2019-04-21T15:03:39.555Z,10.82
2019-04-21T15:08:47.369Z,11.05
2019-04-21T15:13:57.770Z,11.18
2019-04-21T15:19:04.849Z,10.44
2019-04-21T15:24:14.223Z,10.47
2019-04-21T15:29:22.517Z,10.04
2019-04-21T15:34:31.932Z,9.78
2019-04-21T15:39:40.456Z,9.47
2019-04-21T15:44:48.421Z,9.98
2019-04-21T15:50:02.955Z,9.47
2019-04-21T15:55:05.309Z,9.46
2019-04-21T16:00:13.513Z,9.06
2019-04-21T16:05:22.526Z,9.44
2019-04-21T16:10:42.834Z,10.22
2019-04-21T16:15:40.899Z,10.68
2019-04-21T16:20:48.313Z,9.75
2019-04-21T16:25:57.249Z,10.05
2019-04-21T16:31:06.770Z,9.99
2019-04-21T16:36:15.069Z,11.65
2019-04-21T16:41:24.107Z,11.51
2019-04-21T16:46:31.693Z,11.96
2019-04-21T16:51:40.581Z,11.38
2019-04-21T16:56:50.101Z,11.03
2019-04-21T17:01:58.735Z,10.66
2019-04-21T17:07:07.336Z,10.47
2019-04-21T17:12:16.536Z,9.98
2019-04-21T17:17:37.285Z,9.61
2019-04-21T17:22:32.117Z,9.43
2019-04-21T17:27:40.769Z,9.33
2019-04-21T17:32:49.921Z,10.08
2019-04-21T17:37:58.251Z,10.00
2019-04-21T17:43:09.097Z,10.86
2019-04-21T17:48:15.916Z,10.02
2019-04-21T17:53:32.718Z,11.16
2019-04-21T17:58:52.676Z,10.14
2019-04-21T18:04:03.628Z,10.69
2019-04-21T18:09:13.899Z,10.14
2019-04-21T18:13:57.473Z,9.52
2019-04-21T18:19:04.727Z,9.10
2019-04-21T18:24:19.391Z,8.55
2019-04-21T18:29:21.822Z,8.34
2019-04-21T18:34:32.474Z,8.01
2019-04-21T18:39:55.051Z,7.71
2019-04-21T18:45:28.116Z,7.28
2019-04-21T18:49:56.214Z,7.06
2019-04-21T18:55:16.604Z,6.97
2019-04-21T19:00:18.191Z,7.22
2019-04-21T19:05:24.613Z,7.12
2019-04-21T19:16:20.600Z,6.75
2019-04-21T19:21:03.045Z,6.84
2019-04-21T19:31:30.322Z,7.05
2019-04-21T19:36:13.131Z,7.30
2019-04-21T19:41:32.935Z,8.00
2019-04-21T19:46:43.529Z,8.35
2019-04-21T19:51:51.117Z,8.74
2019-04-21T19:56:46.951Z,9.53
2019-04-21T20:01:54.197Z,10.17
2019-04-21T20:07:19.060Z,10.23
2019-04-21T20:12:36.829Z,10.91
2019-04-21T20:22:32.729Z,13.05
2019-04-21T20:27:45.201Z,13.39
2019-04-21T20:33:12.253Z,15.35
2019-04-21T20:38:11.395Z,15.15
2019-04-21T20:43:19.282Z,15.40
2019-04-21T20:48:18.029Z,16.00
2019-04-21T20:53:35.895Z,14.88
2019-04-21T20:58:41.135Z,15.63
2019-04-21T21:03:48.969Z,14.50
2019-04-21T21:09:01.472Z,13.63
2019-04-21T21:19:23.591Z,12.96
2019-04-21T21:24:31.175Z,12.57
2019-04-21T21:29:34.669Z,13.81
2019-04-21T21:34:45.784Z,10.50
2019-04-21T21:39:57.268Z,12.86
2019-04-21T21:44:50.455Z,11.13
2019-04-21T21:50:01.267Z,9.45
2019-04-21T21:54:59.549Z,9.78
2019-04-21T22:00:12.282Z,9.53
2019-04-21T22:05:22.042Z,9.20
2019-04-21T22:10:25.401Z,9.68
2019-04-21T22:15:35.572Z,9.75
2019-04-21T22:20:57.416Z,9.94
2019-04-21T22:25:51.444Z,7.03
2019-04-21T22:31:00.943Z,8.65
2019-04-21T22:36:21.982Z,11.60
2019-04-21T22:41:23.262Z,11.85
2019-04-21T22:46:24.712Z,13.05
2019-04-21T22:51:40.724Z,12.92
2019-04-21T22:56:54.006Z,12.69
2019-04-21T23:01:52.323Z,13.43
2019-04-21T23:07:02.819Z,13.15
2019-04-21T23:12:08.049Z,13.19
2019-04-21T23:17:32.328Z,13.60
2019-04-21T23:22:55.329Z,13.75
2019-04-21T23:27:48.042Z,14.49
2019-04-21T23:32:47.857Z,14.73
2019-04-21T23:37:56.500Z,15.02
2019-04-21T23:43:00.028Z,15.32
2019-04-21T23:48:18.474Z,15.44
2019-04-21T23:53:15.328Z,15.65
2019-04-21T23:58:27.388Z,15.50
